Terminal Aerodrome Forecast
Issued by NWS Quad Cities IA IL

Home | Current Version | Previous Version | Text Only | Print | Product List | Glossary On
Versions: 1 2 3 4 5 6 7 8 9 10 11 12 13 14 15 16 17 18 19 20 21 22 23 24
365
FTUS43 KDVN 041834 AAA
TAFMLI
TAF AMD
KMLI 041834Z 0419/0518 14008KT 1/4SM +SN FG OVC006
     FM042000 16006KT 4SM -SN BR OVC007
     FM050000 23007KT 5SM BR OVC004
     FM050400 VRB03KT 1/2SM FG OVC003
     FM051600 VRB03KT 3SM BR SCT003=

USA.gov is the U.S. government's official web portal to all federal, state and local government web resources and services.